sensor_id;sensor_type;location;lat;lon;timestamp;temperature;humidity
37658;DHT22;23500;53.268;8.308;2023-07-29T00:01:24;21.70;76.20
37658;DHT22;23500;53.268;8.308;2023-07-29T00:03:49;21.70;76.20
37658;DHT22;23500;53.268;8.308;2023-07-29T00:06:15;21.70;76.10
37658;DHT22;23500;53.268;8.308;2023-07-29T00:08:40;21.70;76.10
37658;DHT22;23500;53.268;8.308;2023-07-29T00:11:06;21.70;76.20
37658;DHT22;23500;53.268;8.308;2023-07-29T00:13:32;21.70;76.20
37658;DHT22;23500;53.268;8.308;2023-07-29T00:15:57;21.70;76.20
37658;DHT22;23500;53.268;8.308;2023-07-29T00:18:23;21.70;76.20
37658;DHT22;23500;53.268;8.308;2023-07-29T00:20:49;21.70;76.20
37658;DHT22;23500;53.268;8.308;2023-07-29T00:23:17;21.70;76.20
37658;DHT22;23500;53.268;8.308;2023-07-29T00:25:44;21.70;76.90
37658;DHT22;23500;53.268;8.308;2023-07-29T00:28:11;21.70;76.10
37658;DHT22;23500;53.268;8.308;2023-07-29T00:30:36;21.70;76.10
37658;DHT22;23500;53.268;8.308;2023-07-29T00:33:02;21.70;76.10
37658;DHT22;23500;53.268;8.308;2023-07-29T00:35:28;21.70;76.20
37658;DHT22;23500;53.268;8.308;2023-07-29T00:37:53;21.70;76.10
37658;DHT22;23500;53.268;8.308;2023-07-29T00:40:20;21.70;76.10
37658;DHT22;23500;53.268;8.308;2023-07-29T00:42:46;21.70;76.10
37658;DHT22;23500;53.268;8.308;2023-07-29T00:45:12;21.70;76.10
37658;DHT22;23500;53.268;8.308;2023-07-29T00:47:38;21.70;76.10
37658;DHT22;23500;53.268;8.308;2023-07-29T00:50:05;21.70;76.10
37658;DHT22;23500;53.268;8.308;2023-07-29T00:52:32;21.70;76.10
37658;DHT22;23500;53.268;8.308;2023-07-29T00:54:58;21.70;76.10
37658;DHT22;23500;53.268;8.308;2023-07-29T00:57:24;21.60;76.10
37658;DHT22;23500;53.268;8.308;2023-07-29T00:59:51;21.70;76.10
37658;DHT22;23500;53.268;8.308;2023-07-29T01:02:17;21.60;76.00
37658;DHT22;23500;53.268;8.308;2023-07-29T01:04:43;21.60;76.10
37658;DHT22;23500;53.268;8.308;2023-07-29T01:10:37;21.60;76.90
37658;DHT22;23500;53.268;8.308;2023-07-29T01:13:06;21.60;76.10
37658;DHT22;23500;53.268;8.308;2023-07-29T01:15:55;21.60;76.20
37658;DHT22;23500;53.268;8.308;2023-07-29T01:18:27;21.60;76.20
37658;DHT22;23500;53.268;8.308;2023-07-29T01:20:55;21.60;76.20
37658;DHT22;23500;53.268;8.308;2023-07-29T01:23:29;21.60;76.30
37658;DHT22;23500;53.268;8.308;2023-07-29T01:25:55;21.60;76.30
37658;DHT22;23500;53.268;8.308;2023-07-29T01:28:21;21.60;76.30
37658;DHT22;23500;53.268;8.308;2023-07-29T01:30:49;21.60;76.30
37658;DHT22;23500;53.268;8.308;2023-07-29T01:33:22;21.60;76.30
37658;DHT22;23500;53.268;8.308;2023-07-29T01:36:07;21.50;76.30
37658;DHT22;23500;53.268;8.308;2023-07-29T01:38:36;21.50;76.30
37658;DHT22;23500;53.268;8.308;2023-07-29T01:41:03;21.50;76.30
37658;DHT22;23500;53.268;8.308;2023-07-29T01:43:30;21.50;76.30
37658;DHT22;23500;53.268;8.308;2023-07-29T01:45:56;21.50;76.30
37658;DHT22;23500;53.268;8.308;2023-07-29T01:48:22;21.50;76.40
37658;DHT22;23500;53.268;8.308;2023-07-29T01:50:48;21.50;76.30
37658;DHT22;23500;53.268;8.308;2023-07-29T01:53:13;21.50;76.30
37658;DHT22;23500;53.268;8.308;2023-07-29T01:55:41;21.50;76.30
37658;DHT22;23500;53.268;8.308;2023-07-29T01:58:06;21.50;76.30
37658;DHT22;23500;53.268;8.308;2023-07-29T02:00:32;21.50;76.30
37658;DHT22;23500;53.268;8.308;2023-07-29T02:02:58;21.50;76.40
37658;DHT22;23500;53.268;8.308;2023-07-29T02:05:23;21.50;76.30
37658;DHT22;23500;53.268;8.308;2023-07-29T02:07:49;21.50;76.30
37658;DHT22;23500;53.268;8.308;2023-07-29T02:10:15;21.50;76.30
37658;DHT22;23500;53.268;8.308;2023-07-29T02:12:41;21.50;77.00
37658;DHT22;23500;53.268;8.308;2023-07-29T02:15:07;21.40;76.40
37658;DHT22;23500;53.268;8.308;2023-07-29T02:17:33;21.40;76.30
37658;DHT22;23500;53.268;8.308;2023-07-29T02:19:59;21.40;76.40
37658;DHT22;23500;53.268;8.308;2023-07-29T02:22:24;21.40;76.40
37658;DHT22;23500;53.268;8.308;2023-07-29T02:24:50;21.40;76.40
37658;DHT22;23500;53.268;8.308;2023-07-29T02:27:16;21.40;76.50
37658;DHT22;23500;53.268;8.308;2023-07-29T02:29:41;21.40;76.50
37658;DHT22;23500;53.268;8.308;2023-07-29T02:32:07;21.40;76.60
37658;DHT22;23500;53.268;8.308;2023-07-29T02:34:33;21.40;76.60
37658;DHT22;23500;53.268;8.308;2023-07-29T02:36:59;21.40;76.60
37658;DHT22;23500;53.268;8.308;2023-07-29T02:39:25;21.40;76.80
37658;DHT22;23500;53.268;8.308;2023-07-29T02:41:51;21.40;76.70
37658;DHT22;23500;53.268;8.308;2023-07-29T02:44:17;21.40;76.70
37658;DHT22;23500;53.268;8.308;2023-07-29T02:46:43;21.40;76.70
37658;DHT22;23500;53.268;8.308;2023-07-29T02:49:08;21.40;76.70
37658;DHT22;23500;53.268;8.308;2023-07-29T02:51:34;21.40;76.70
37658;DHT22;23500;53.268;8.308;2023-07-29T02:54:00;21.40;76.70
37658;DHT22;23500;53.268;8.308;2023-07-29T02:56:25;21.40;76.70
37658;DHT22;23500;53.268;8.308;2023-07-29T02:58:51;21.40;76.80
37658;DHT22;23500;53.268;8.308;2023-07-29T03:01:17;21.30;76.70
37658;DHT22;23500;53.268;8.308;2023-07-29T03:03:43;21.30;76.80
37658;DHT22;23500;53.268;8.308;2023-07-29T03:06:12;21.30;76.70
37658;DHT22;23500;53.268;8.308;2023-07-29T03:08:38;21.30;76.80
37658;DHT22;23500;53.268;8.308;2023-07-29T03:11:09;21.30;76.80
37658;DHT22;23500;53.268;8.308;2023-07-29T03:13:35;21.30;76.80
37658;DHT22;23500;53.268;8.308;2023-07-29T03:16:14;21.30;76.80
37658;DHT22;23500;53.268;8.308;2023-07-29T03:18:41;21.30;76.80
37658;DHT22;23500;53.268;8.308;2023-07-29T03:21:07;21.30;76.80
37658;DHT22;23500;53.268;8.308;2023-07-29T03:23:33;21.30;76.80
37658;DHT22;23500;53.268;8.308;2023-07-29T03:26:01;21.30;76.80
37658;DHT22;23500;53.268;8.308;2023-07-29T03:28:33;21.30;76.80
37658;DHT22;23500;53.268;8.308;2023-07-29T03:30:59;21.30;76.90
37658;DHT22;23500;53.268;8.308;2023-07-29T03:33:25;21.30;76.90
37658;DHT22;23500;53.268;8.308;2023-07-29T03:35:52;21.30;77.00
37658;DHT22;23500;53.268;8.308;2023-07-29T03:38:18;21.30;76.90
37658;DHT22;23500;53.268;8.308;2023-07-29T03:40:44;21.30;77.00
37658;DHT22;23500;53.268;8.308;2023-07-29T03:43:09;21.30;77.00
37658;DHT22;23500;53.268;8.308;2023-07-29T03:45:35;21.30;77.00
37658;DHT22;23500;53.268;8.308;2023-07-29T03:48:02;21.30;77.00
37658;DHT22;23500;53.268;8.308;2023-07-29T03:50:29;21.30;77.00
37658;DHT22;23500;53.268;8.308;2023-07-29T03:52:55;21.30;77.00
37658;DHT22;23500;53.268;8.308;2023-07-29T03:55:21;21.30;77.00
37658;DHT22;23500;53.268;8.308;2023-07-29T03:57:46;21.30;77.00
37658;DHT22;23500;53.268;8.308;2023-07-29T04:00:12;21.30;77.10
37658;DHT22;23500;53.268;8.308;2023-07-29T04:02:38;21.30;77.10
37658;DHT22;23500;53.268;8.308;2023-07-29T04:05:05;21.30;77.20
37658;DHT22;23500;53.268;8.308;2023-07-29T04:07:37;21.30;77.20
37658;DHT22;23500;53.268;8.308;2023-07-29T04:10:03;21.30;77.10
37658;DHT22;23500;53.268;8.308;2023-07-29T04:12:30;21.30;77.20
37658;DHT22;23500;53.268;8.308;2023-07-29T04:14:56;21.30;77.10
37658;DHT22;23500;53.268;8.308;2023-07-29T04:17:21;21.30;77.10
37658;DHT22;23500;53.268;8.308;2023-07-29T04:19:47;21.40;77.10
37658;DHT22;23500;53.268;8.308;2023-07-29T04:22:13;21.40;77.00
37658;DHT22;23500;53.268;8.308;2023-07-29T04:24:39;21.40;77.00
37658;DHT22;23500;53.268;8.308;2023-07-29T04:27:05;21.40;77.10
37658;DHT22;23500;53.268;8.308;2023-07-29T04:29:31;21.40;77.00
37658;DHT22;23500;53.268;8.308;2023-07-29T04:31:56;21.40;77.00
37658;DHT22;23500;53.268;8.308;2023-07-29T04:34:22;21.40;77.00
37658;DHT22;23500;53.268;8.308;2023-07-29T04:36:48;21.40;76.90
37658;DHT22;23500;53.268;8.308;2023-07-29T04:39:14;21.40;77.00
37658;DHT22;23500;53.268;8.308;2023-07-29T04:41:40;21.40;76.90
37658;DHT22;23500;53.268;8.308;2023-07-29T04:44:06;21.40;76.80
37658;DHT22;23500;53.268;8.308;2023-07-29T04:46:32;21.50;76.90
37658;DHT22;23500;53.268;8.308;2023-07-29T04:48:58;21.50;76.80
37658;DHT22;23500;53.268;8.308;2023-07-29T04:51:24;21.50;76.80
37658;DHT22;23500;53.268;8.308;2023-07-29T04:53:50;21.50;76.80
37658;DHT22;23500;53.268;8.308;2023-07-29T04:56:15;21.50;76.70
37658;DHT22;23500;53.268;8.308;2023-07-29T04:58:41;21.50;76.70
37658;DHT22;23500;53.268;8.308;2023-07-29T05:01:07;21.50;76.80
37658;DHT22;23500;53.268;8.308;2023-07-29T05:03:33;21.50;76.70
37658;DHT22;23500;53.268;8.308;2023-07-29T05:05:59;21.50;76.50
37658;DHT22;23500;53.268;8.308;2023-07-29T05:08:26;21.60;76.40
37658;DHT22;23500;53.268;8.308;2023-07-29T05:10:52;21.60;76.40
37658;DHT22;23500;53.268;8.308;2023-07-29T05:13:18;21.60;76.10
37658;DHT22;23500;53.268;8.308;2023-07-29T05:15:44;21.70;76.30
37658;DHT22;23500;53.268;8.308;2023-07-29T05:18:11;21.70;76.00
37658;DHT22;23500;53.268;8.308;2023-07-29T05:20:36;21.80;75.80
37658;DHT22;23500;53.268;8.308;2023-07-29T05:23:02;21.80;75.70
37658;DHT22;23500;53.268;8.308;2023-07-29T05:25:28;21.90;75.60
37658;DHT22;23500;53.268;8.308;2023-07-29T05:27:54;21.80;75.50
37658;DHT22;23500;53.268;8.308;2023-07-29T05:30:20;21.90;76.10
37658;DHT22;23500;53.268;8.308;2023-07-29T05:32:45;21.90;75.50
37658;DHT22;23500;53.268;8.308;2023-07-29T05:35:11;21.90;75.60
37658;DHT22;23500;53.268;8.308;2023-07-29T05:37:40;21.90;75.40
37658;DHT22;23500;53.268;8.308;2023-07-29T05:40:07;21.90;75.40
37658;DHT22;23500;53.268;8.308;2023-07-29T05:42:34;21.90;75.60
37658;DHT22;23500;53.268;8.308;2023-07-29T05:45:00;21.90;75.50
37658;DHT22;23500;53.268;8.308;2023-07-29T05:47:26;21.90;75.20
37658;DHT22;23500;53.268;8.308;2023-07-29T05:49:52;21.90;75.20
37658;DHT22;23500;53.268;8.308;2023-07-29T05:52:18;21.90;75.10
37658;DHT22;23500;53.268;8.308;2023-07-29T05:54:44;21.90;74.80
37658;DHT22;23500;53.268;8.308;2023-07-29T05:57:11;21.90;75.10
37658;DHT22;23500;53.268;8.308;2023-07-29T05:59:36;21.90;74.80
37658;DHT22;23500;53.268;8.308;2023-07-29T06:02:02;21.90;74.70
37658;DHT22;23500;53.268;8.308;2023-07-29T06:04:28;21.90;74.50
37658;DHT22;23500;53.268;8.308;2023-07-29T06:06:53;22.00;74.20
37658;DHT22;23500;53.268;8.308;2023-07-29T06:09:21;22.10;74.00
37658;DHT22;23500;53.268;8.308;2023-07-29T06:11:47;22.10;73.80
37658;DHT22;23500;53.268;8.308;2023-07-29T06:14:13;22.10;73.80
37658;DHT22;23500;53.268;8.308;2023-07-29T06:16:39;22.10;73.80
37658;DHT22;23500;53.268;8.308;2023-07-29T06:19:04;22.10;73.80
37658;DHT22;23500;53.268;8.308;2023-07-29T06:21:30;22.00;73.90
37658;DHT22;23500;53.268;8.308;2023-07-29T06:23:56;22.00;73.90
37658;DHT22;23500;53.268;8.308;2023-07-29T06:26:22;22.00;74.00
37658;DHT22;23500;53.268;8.308;2023-07-29T06:28:47;22.00;74.00
37658;DHT22;23500;53.268;8.308;2023-07-29T06:31:13;22.00;74.00
37658;DHT22;23500;53.268;8.308;2023-07-29T06:33:39;22.00;74.00
37658;DHT22;23500;53.268;8.308;2023-07-29T06:36:05;22.00;73.90
37658;DHT22;23500;53.268;8.308;2023-07-29T06:38:31;22.00;73.90
37658;DHT22;23500;53.268;8.308;2023-07-29T06:40:56;22.00;73.90
37658;DHT22;23500;53.268;8.308;2023-07-29T06:43:22;22.00;74.00
37658;DHT22;23500;53.268;8.308;2023-07-29T06:45:48;22.00;74.00
37658;DHT22;23500;53.268;8.308;2023-07-29T06:48:14;22.00;74.00
37658;DHT22;23500;53.268;8.308;2023-07-29T06:50:39;22.00;74.00
37658;DHT22;23500;53.268;8.308;2023-07-29T06:53:06;22.00;74.00
37658;DHT22;23500;53.268;8.308;2023-07-29T06:55:31;22.00;74.00
37658;DHT22;23500;53.268;8.308;2023-07-29T06:57:57;22.00;73.90
37658;DHT22;23500;53.268;8.308;2023-07-29T07:00:23;22.10;73.80
37658;DHT22;23500;53.268;8.308;2023-07-29T07:02:48;22.10;73.70
37658;DHT22;23500;53.268;8.308;2023-07-29T07:05:14;22.20;73.60
37658;DHT22;23500;53.268;8.308;2023-07-29T07:07:40;22.20;73.40
37658;DHT22;23500;53.268;8.308;2023-07-29T07:10:06;22.30;73.40
37658;DHT22;23500;53.268;8.308;2023-07-29T07:12:32;22.20;73.30
37658;DHT22;23500;53.268;8.308;2023-07-29T07:14:57;22.20;73.30
37658;DHT22;23500;53.268;8.308;2023-07-29T07:17:23;22.20;73.30
37658;DHT22;23500;53.268;8.308;2023-07-29T07:19:49;22.20;73.40
37658;DHT22;23500;53.268;8.308;2023-07-29T07:22:16;22.20;73.40
37658;DHT22;23500;53.268;8.308;2023-07-29T07:24:41;22.20;73.40
37658;DHT22;23500;53.268;8.308;2023-07-29T07:27:07;22.30;73.40
37658;DHT22;23500;53.268;8.308;2023-07-29T07:29:33;22.30;73.20
37658;DHT22;23500;53.268;8.308;2023-07-29T07:31:59;22.30;73.20
37658;DHT22;23500;53.268;8.308;2023-07-29T07:34:24;22.30;73.10
37658;DHT22;23500;53.268;8.308;2023-07-29T07:36:51;22.30;73.00
37658;DHT22;23500;53.268;8.308;2023-07-29T07:39:16;22.30;72.90
37658;DHT22;23500;53.268;8.308;2023-07-29T07:41:42;22.40;72.80
37658;DHT22;23500;53.268;8.308;2023-07-29T07:44:08;22.40;72.80
37658;DHT22;23500;53.268;8.308;2023-07-29T07:46:34;22.40;72.80
37658;DHT22;23500;53.268;8.308;2023-07-29T07:49:00;22.40;72.80
37658;DHT22;23500;53.268;8.308;2023-07-29T07:51:25;22.50;72.80
37658;DHT22;23500;53.268;8.308;2023-07-29T07:53:51;22.50;72.70
37658;DHT22;23500;53.268;8.308;2023-07-29T07:56:17;22.40;72.70
37658;DHT22;23500;53.268;8.308;2023-07-29T07:58:42;22.40;72.70
37658;DHT22;23500;53.268;8.308;2023-07-29T08:01:09;22.40;72.70
37658;DHT22;23500;53.268;8.308;2023-07-29T08:03:35;22.50;72.80
37658;DHT22;23500;53.268;8.308;2023-07-29T08:06:02;22.40;72.70
37658;DHT22;23500;53.268;8.308;2023-07-29T08:08:28;22.50;72.80
37658;DHT22;23500;53.268;8.308;2023-07-29T08:10:54;22.50;72.70
37658;DHT22;23500;53.268;8.308;2023-07-29T08:13:22;22.50;72.70
37658;DHT22;23500;53.268;8.308;2023-07-29T08:15:49;22.50;73.40
37658;DHT22;23500;53.268;8.308;2023-07-29T08:18:15;22.50;72.80
37658;DHT22;23500;53.268;8.308;2023-07-29T08:20:41;22.50;72.70
37658;DHT22;23500;53.268;8.308;2023-07-29T08:23:07;22.50;72.60
37658;DHT22;23500;53.268;8.308;2023-07-29T08:25:32;22.50;72.50
37658;DHT22;23500;53.268;8.308;2023-07-29T08:27:58;22.60;72.50
37658;DHT22;23500;53.268;8.308;2023-07-29T08:30:24;22.60;72.30
37658;DHT22;23500;53.268;8.308;2023-07-29T08:32:50;22.60;72.30
37658;DHT22;23500;53.268;8.308;2023-07-29T08:35:16;22.60;72.50
37658;DHT22;23500;53.268;8.308;2023-07-29T08:37:41;22.60;72.50
37658;DHT22;23500;53.268;8.308;2023-07-29T08:40:07;22.60;72.50
37658;DHT22;23500;53.268;8.308;2023-07-29T08:42:34;22.60;72.40
37658;DHT22;23500;53.268;8.308;2023-07-29T08:45:06;22.60;72.40
37658;DHT22;23500;53.268;8.308;2023-07-29T08:47:33;22.60;72.40
37658;DHT22;23500;53.268;8.308;2023-07-29T08:49:59;22.60;72.20
37658;DHT22;23500;53.268;8.308;2023-07-29T08:52:27;22.60;72.10
37658;DHT22;23500;53.268;8.308;2023-07-29T08:54:54;22.60;72.20
37658;DHT22;23500;53.268;8.308;2023-07-29T08:57:20;22.60;72.70
37658;DHT22;23500;53.268;8.308;2023-07-29T08:59:47;22.60;72.90
37658;DHT22;23500;53.268;8.308;2023-07-29T09:02:13;22.60;73.10
37658;DHT22;23500;53.268;8.308;2023-07-29T09:04:39;22.60;73.00
37658;DHT22;23500;53.268;8.308;2023-07-29T09:07:05;22.60;72.90
37658;DHT22;23500;53.268;8.308;2023-07-29T09:09:32;22.60;72.90
37658;DHT22;23500;53.268;8.308;2023-07-29T09:11:57;22.50;72.90
37658;DHT22;23500;53.268;8.308;2023-07-29T09:14:24;22.50;72.90
37658;DHT22;23500;53.268;8.308;2023-07-29T09:16:49;22.60;72.90
37658;DHT22;23500;53.268;8.308;2023-07-29T09:19:15;22.60;73.70
37658;DHT22;23500;53.268;8.308;2023-07-29T09:21:41;22.60;73.20
37658;DHT22;23500;53.268;8.308;2023-07-29T09:24:07;22.60;73.10
37658;DHT22;23500;53.268;8.308;2023-07-29T09:26:33;22.70;73.30
37658;DHT22;23500;53.268;8.308;2023-07-29T09:28:59;22.70;73.40
37658;DHT22;23500;53.268;8.308;2023-07-29T09:31:26;22.70;73.40
37658;DHT22;23500;53.268;8.308;2023-07-29T09:34:03;22.70;73.40
37658;DHT22;23500;53.268;8.308;2023-07-29T09:36:33;22.70;73.30
37658;DHT22;23500;53.268;8.308;2023-07-29T09:38:59;22.70;73.40
37658;DHT22;23500;53.268;8.308;2023-07-29T09:41:27;22.70;73.40
37658;DHT22;23500;53.268;8.308;2023-07-29T09:43:57;22.70;73.50
37658;DHT22;23500;53.268;8.308;2023-07-29T09:46:24;22.70;73.50
37658;DHT22;23500;53.268;8.308;2023-07-29T09:48:56;22.70;73.60
37658;DHT22;23500;53.268;8.308;2023-07-29T09:51:22;22.70;73.70
37658;DHT22;23500;53.268;8.308;2023-07-29T09:53:49;22.70;73.70
37658;DHT22;23500;53.268;8.308;2023-07-29T09:56:16;22.70;73.70
37658;DHT22;23500;53.268;8.308;2023-07-29T09:58:44;22.70;73.90
37658;DHT22;23500;53.268;8.308;2023-07-29T10:01:11;22.70;74.00
37658;DHT22;23500;53.268;8.308;2023-07-29T10:03:37;22.70;74.00
37658;DHT22;23500;53.268;8.308;2023-07-29T10:06:04;22.70;74.10
37658;DHT22;23500;53.268;8.308;2023-07-29T10:08:30;22.70;74.20
37658;DHT22;23500;53.268;8.308;2023-07-29T10:10:59;22.70;74.20
37658;DHT22;23500;53.268;8.308;2023-07-29T10:13:25;22.70;74.30
37658;DHT22;23500;53.268;8.308;2023-07-29T10:15:53;22.70;74.20
37658;DHT22;23500;53.268;8.308;2023-07-29T10:18:20;22.70;74.20
37658;DHT22;23500;53.268;8.308;2023-07-29T10:20:48;22.70;74.20
37658;DHT22;23500;53.268;8.308;2023-07-29T10:23:17;22.70;74.30
37658;DHT22;23500;53.268;8.308;2023-07-29T10:25:47;22.70;74.30
37658;DHT22;23500;53.268;8.308;2023-07-29T10:28:16;22.70;75.00
37658;DHT22;23500;53.268;8.308;2023-07-29T10:30:44;22.70;74.20
37658;DHT22;23500;53.268;8.308;2023-07-29T10:33:10;22.70;74.20
37658;DHT22;23500;53.268;8.308;2023-07-29T10:35:36;22.70;74.20
37658;DHT22;23500;53.268;8.308;2023-07-29T10:38:03;22.70;74.30
37658;DHT22;23500;53.268;8.308;2023-07-29T10:40:52;22.70;74.30
37658;DHT22;23500;53.268;8.308;2023-07-29T10:43:26;22.70;74.30
37658;DHT22;23500;53.268;8.308;2023-07-29T10:45:54;22.70;74.40
37658;DHT22;23500;53.268;8.308;2023-07-29T10:51:30;22.70;74.40
37658;DHT22;23500;53.268;8.308;2023-07-29T10:54:00;22.70;74.50
37658;DHT22;23500;53.268;8.308;2023-07-29T10:56:31;22.70;74.50
37658;DHT22;23500;53.268;8.308;2023-07-29T11:01:45;22.70;74.50
37658;DHT22;23500;53.268;8.308;2023-07-29T11:12:36;22.70;74.60
37658;DHT22;23500;53.268;8.308;2023-07-29T11:15:04;22.70;74.70
37658;DHT22;23500;53.268;8.308;2023-07-29T11:18:00;22.70;74.80
37658;DHT22;23500;53.268;8.308;2023-07-29T11:20:29;22.70;74.70
37658;DHT22;23500;53.268;8.308;2023-07-29T11:22:58;22.80;74.70
37658;DHT22;23500;53.268;8.308;2023-07-29T11:25:25;22.80;74.70
37658;DHT22;23500;53.268;8.308;2023-07-29T11:27:53;22.80;74.70
37658;DHT22;23500;53.268;8.308;2023-07-29T11:30:19;22.80;74.60
37658;DHT22;23500;53.268;8.308;2023-07-29T11:32:46;22.80;74.50
37658;DHT22;23500;53.268;8.308;2023-07-29T11:35:16;22.90;74.50
37658;DHT22;23500;53.268;8.308;2023-07-29T11:37:44;22.90;74.40
37658;DHT22;23500;53.268;8.308;2023-07-29T11:40:17;22.90;74.40
37658;DHT22;23500;53.268;8.308;2023-07-29T11:42:43;22.90;74.30
37658;DHT22;23500;53.268;8.308;2023-07-29T11:45:10;22.90;74.20
37658;DHT22;23500;53.268;8.308;2023-07-29T11:47:36;22.90;74.10
37658;DHT22;23500;53.268;8.308;2023-07-29T11:50:07;22.90;74.10
37658;DHT22;23500;53.268;8.308;2023-07-29T11:52:35;22.90;74.00
37658;DHT22;23500;53.268;8.308;2023-07-29T11:55:03;22.90;74.00
37658;DHT22;23500;53.268;8.308;2023-07-29T11:57:30;22.90;74.00
37658;DHT22;23500;53.268;8.308;2023-07-29T11:59:56;22.90;74.00
37658;DHT22;23500;53.268;8.308;2023-07-29T12:02:22;22.90;74.00
37658;DHT22;23500;53.268;8.308;2023-07-29T12:04:49;22.90;73.90
37658;DHT22;23500;53.268;8.308;2023-07-29T12:07:17;22.90;73.90
37658;DHT22;23500;53.268;8.308;2023-07-29T12:09:43;22.90;73.80
37658;DHT22;23500;53.268;8.308;2023-07-29T12:12:09;23.00;73.70
37658;DHT22;23500;53.268;8.308;2023-07-29T12:14:35;22.90;73.80
37658;DHT22;23500;53.268;8.308;2023-07-29T12:17:02;22.90;73.90
37658;DHT22;23500;53.268;8.308;2023-07-29T12:19:32;22.80;73.90
37658;DHT22;23500;53.268;8.308;2023-07-29T12:21:59;22.80;74.00
37658;DHT22;23500;53.268;8.308;2023-07-29T12:24:25;22.80;74.10
37658;DHT22;23500;53.268;8.308;2023-07-29T12:26:51;22.80;74.20
37658;DHT22;23500;53.268;8.308;2023-07-29T12:29:18;22.70;74.30
37658;DHT22;23500;53.268;8.308;2023-07-29T12:31:45;22.70;74.20
37658;DHT22;23500;53.268;8.308;2023-07-29T12:34:21;22.70;74.20
37658;DHT22;23500;53.268;8.308;2023-07-29T12:36:48;22.70;74.20
37658;DHT22;23500;53.268;8.308;2023-07-29T12:41:50;22.70;74.20
37658;DHT22;23500;53.268;8.308;2023-07-29T12:44:17;22.70;74.20
37658;DHT22;23500;53.268;8.308;2023-07-29T12:46:43;22.70;74.20
37658;DHT22;23500;53.268;8.308;2023-07-29T12:49:08;22.70;74.20
37658;DHT22;23500;53.268;8.308;2023-07-29T12:51:34;22.70;74.10
37658;DHT22;23500;53.268;8.308;2023-07-29T12:54:01;22.70;74.00
37658;DHT22;23500;53.268;8.308;2023-07-29T12:56:28;22.80;74.10
37658;DHT22;23500;53.268;8.308;2023-07-29T12:58:55;22.80;73.90
37658;DHT22;23500;53.268;8.308;2023-07-29T13:01:20;22.80;73.90
37658;DHT22;23500;53.268;8.308;2023-07-29T13:03:47;22.80;73.80
37658;DHT22;23500;53.268;8.308;2023-07-29T13:06:13;22.80;73.80
37658;DHT22;23500;53.268;8.308;2023-07-29T13:08:38;22.80;73.80
37658;DHT22;23500;53.268;8.308;2023-07-29T13:11:04;22.80;73.80
37658;DHT22;23500;53.268;8.308;2023-07-29T13:13:31;22.70;73.80
37658;DHT22;23500;53.268;8.308;2023-07-29T13:15:57;22.70;73.90
37658;DHT22;23500;53.268;8.308;2023-07-29T13:18:23;22.70;73.90
37658;DHT22;23500;53.268;8.308;2023-07-29T13:20:48;22.70;73.90
37658;DHT22;23500;53.268;8.308;2023-07-29T13:23:15;22.70;73.90
37658;DHT22;23500;53.268;8.308;2023-07-29T13:25:41;22.70;74.00
37658;DHT22;23500;53.268;8.308;2023-07-29T13:28:07;22.70;73.90
37658;DHT22;23500;53.268;8.308;2023-07-29T13:30:33;22.80;73.80
37658;DHT22;23500;53.268;8.308;2023-07-29T13:32:59;22.80;73.80
37658;DHT22;23500;53.268;8.308;2023-07-29T13:35:24;22.70;73.70
37658;DHT22;23500;53.268;8.308;2023-07-29T13:37:50;22.70;73.80
37658;DHT22;23500;53.268;8.308;2023-07-29T13:40:16;22.70;73.90
37658;DHT22;23500;53.268;8.308;2023-07-29T13:42:42;22.70;73.90
37658;DHT22;23500;53.268;8.308;2023-07-29T13:45:08;22.70;74.00
37658;DHT22;23500;53.268;8.308;2023-07-29T13:47:34;22.60;74.80
37658;DHT22;23500;53.268;8.308;2023-07-29T13:50:00;22.60;74.10
37658;DHT22;23500;53.268;8.308;2023-07-29T13:52:26;22.60;74.30
37658;DHT22;23500;53.268;8.308;2023-07-29T13:54:51;22.60;74.40
37658;DHT22;23500;53.268;8.308;2023-07-29T13:57:17;22.60;74.30
37658;DHT22;23500;53.268;8.308;2023-07-29T13:59:43;22.60;74.30
37658;DHT22;23500;53.268;8.308;2023-07-29T14:02:08;22.60;74.10
37658;DHT22;23500;53.268;8.308;2023-07-29T14:04:34;22.70;74.00
37658;DHT22;23500;53.268;8.308;2023-07-29T14:07:00;22.80;73.70
37658;DHT22;23500;53.268;8.308;2023-07-29T14:09:27;22.80;73.50
37658;DHT22;23500;53.268;8.308;2023-07-29T14:11:54;22.90;73.40
37658;DHT22;23500;53.268;8.308;2023-07-29T14:14:20;22.90;73.30
37658;DHT22;23500;53.268;8.308;2023-07-29T14:16:46;23.00;73.20
37658;DHT22;23500;53.268;8.308;2023-07-29T14:19:12;22.90;73.10
37658;DHT22;23500;53.268;8.308;2023-07-29T14:21:38;22.90;73.10
37658;DHT22;23500;53.268;8.308;2023-07-29T14:24:04;22.90;73.10
37658;DHT22;23500;53.268;8.308;2023-07-29T14:26:29;22.90;73.20
37658;DHT22;23500;53.268;8.308;2023-07-29T14:28:55;22.80;73.20
37658;DHT22;23500;53.268;8.308;2023-07-29T14:31:21;22.80;73.30
37658;DHT22;23500;53.268;8.308;2023-07-29T14:33:47;22.80;73.30
37658;DHT22;23500;53.268;8.308;2023-07-29T14:36:15;22.80;73.40
37658;DHT22;23500;53.268;8.308;2023-07-29T14:38:42;22.80;73.40
37658;DHT22;23500;53.268;8.308;2023-07-29T14:41:08;22.80;73.40
37658;DHT22;23500;53.268;8.308;2023-07-29T14:43:34;22.80;73.40
37658;DHT22;23500;53.268;8.308;2023-07-29T14:46:00;22.80;73.30
37658;DHT22;23500;53.268;8.308;2023-07-29T14:48:26;22.80;73.30
37658;DHT22;23500;53.268;8.308;2023-07-29T14:50:52;22.80;73.30
37658;DHT22;23500;53.268;8.308;2023-07-29T14:53:17;22.80;73.20
37658;DHT22;23500;53.268;8.308;2023-07-29T14:55:43;22.80;73.20
37658;DHT22;23500;53.268;8.308;2023-07-29T14:58:09;22.80;73.30
37658;DHT22;23500;53.268;8.308;2023-07-29T15:00:34;22.80;73.40
37658;DHT22;23500;53.268;8.308;2023-07-29T15:03:00;22.80;73.30
37658;DHT22;23500;53.268;8.308;2023-07-29T15:05:26;22.80;73.30
37658;DHT22;23500;53.268;8.308;2023-07-29T15:07:51;22.80;73.20
37658;DHT22;23500;53.268;8.308;2023-07-29T15:10:17;22.80;73.10
37658;DHT22;23500;53.268;8.308;2023-07-29T15:12:46;22.90;73.10
37658;DHT22;23500;53.268;8.308;2023-07-29T15:15:12;22.90;73.10
37658;DHT22;23500;53.268;8.308;2023-07-29T15:17:38;22.90;73.00
37658;DHT22;23500;53.268;8.308;2023-07-29T15:20:04;22.90;73.10
37658;DHT22;23500;53.268;8.308;2023-07-29T15:22:30;22.90;73.10
37658;DHT22;23500;53.268;8.308;2023-07-29T15:24:59;22.90;73.30
37658;DHT22;23500;53.268;8.308;2023-07-29T15:27:29;22.90;73.50
37658;DHT22;23500;53.268;8.308;2023-07-29T15:29:55;22.90;73.70
37658;DHT22;23500;53.268;8.308;2023-07-29T15:32:21;22.80;73.80
37658;DHT22;23500;53.268;8.308;2023-07-29T15:34:48;22.80;74.00
37658;DHT22;23500;53.268;8.308;2023-07-29T15:37:14;22.90;74.00
37658;DHT22;23500;53.268;8.308;2023-07-29T15:39:40;22.90;74.20
37658;DHT22;23500;53.268;8.308;2023-07-29T15:42:06;22.90;74.50
37658;DHT22;23500;53.268;8.308;2023-07-29T15:44:31;22.90;74.60
37658;DHT22;23500;53.268;8.308;2023-07-29T15:46:57;22.80;74.80